sensor_id;sensor_type;location;lat;lon;timestamp;temperature;humidity
1297;DHT22;641;48.492;9.184;2022-09-09T00:00:13;17.40;99.90
1297;DHT22;641;48.492;9.184;2022-09-09T00:06:03;17.40;99.90
1297;DHT22;641;48.492;9.184;2022-09-09T00:12:12;17.20;99.90
1297;DHT22;641;48.492;9.184;2022-09-09T00:14:42;17.20;99.90
1297;DHT22;641;48.492;9.184;2022-09-09T00:17:18;17.00;99.90
1297;DHT22;641;48.492;9.184;2022-09-09T00:20:09;17.30;99.90
1297;DHT22;641;48.492;9.184;2022-09-09T00:22:41;17.00;99.90
1297;DHT22;641;48.492;9.184;2022-09-09T00:25:23;17.00;99.90
1297;DHT22;641;48.492;9.184;2022-09-09T00:27:54;17.20;99.90
1297;DHT22;641;48.492;9.184;2022-09-09T00:30:21;17.10;99.90
1297;DHT22;641;48.492;9.184;2022-09-09T00:33:10;17.60;99.90
1297;DHT22;641;48.492;9.184;2022-09-09T00:35:40;17.20;99.90
1297;DHT22;641;48.492;9.184;2022-09-09T00:38:15;17.40;99.90
1297;DHT22;641;48.492;9.184;2022-09-09T00:41:13;17.40;99.90
1297;DHT22;641;48.492;9.184;2022-09-09T00:43:40;17.10;99.90
1297;DHT22;641;48.492;9.184;2022-09-09T00:49:05;17.10;99.90
1297;DHT22;641;48.492;9.184;2022-09-09T00:51:52;17.10;99.90
1297;DHT22;641;48.492;9.184;2022-09-09T01:00:22;17.20;99.90
1297;DHT22;641;48.492;9.184;2022-09-09T01:06:28;16.90;99.90
1297;DHT22;641;48.492;9.184;2022-09-09T01:09:10;16.90;99.90
1297;DHT22;641;48.492;9.184;2022-09-09T01:14:35;17.00;99.90
1297;DHT22;641;48.492;9.184;2022-09-09T01:22:18;17.00;99.90
1297;DHT22;641;48.492;9.184;2022-09-09T01:25:18;17.40;99.90
1297;DHT22;641;48.492;9.184;2022-09-09T01:27:47;17.00;99.90
1297;DHT22;641;48.492;9.184;2022-09-09T01:30:15;17.30;99.90
1297;DHT22;641;48.492;9.184;2022-09-09T01:32:47;17.20;99.90
1297;DHT22;641;48.492;9.184;2022-09-09T01:38:14;16.80;99.90
1297;DHT22;641;48.492;9.184;2022-09-09T01:40:40;17.20;99.90
1297;DHT22;641;48.492;9.184;2022-09-09T01:43:06;17.20;99.90
1297;DHT22;641;48.492;9.184;2022-09-09T01:45:33;17.10;99.90
1297;DHT22;641;48.492;9.184;2022-09-09T01:47:59;16.80;99.90
1297;DHT22;641;48.492;9.184;2022-09-09T01:50:26;16.70;99.90
1297;DHT22;641;48.492;9.184;2022-09-09T01:52:58;16.60;99.90
1297;DHT22;641;48.492;9.184;2022-09-09T01:55:30;16.60;99.90
1297;DHT22;641;48.492;9.184;2022-09-09T02:01:31;16.60;99.90
1297;DHT22;641;48.492;9.184;2022-09-09T02:03:59;16.40;99.90
1297;DHT22;641;48.492;9.184;2022-09-09T02:06:34;16.30;99.90
1297;DHT22;641;48.492;9.184;2022-09-09T02:09:04;16.10;99.90
1297;DHT22;641;48.492;9.184;2022-09-09T02:11:31;16.20;99.90
1297;DHT22;641;48.492;9.184;2022-09-09T02:14:01;16.20;99.90
1297;DHT22;641;48.492;9.184;2022-09-09T02:19:16;16.30;99.90
1297;DHT22;641;48.492;9.184;2022-09-09T02:21:50;16.40;99.90
1297;DHT22;641;48.492;9.184;2022-09-09T02:24:18;16.40;99.90
1297;DHT22;641;48.492;9.184;2022-09-09T02:26:47;16.50;99.90
1297;DHT22;641;48.492;9.184;2022-09-09T02:29:18;16.60;99.90
1297;DHT22;641;48.492;9.184;2022-09-09T02:31:45;16.60;99.90
1297;DHT22;641;48.492;9.184;2022-09-09T02:34:14;17.10;99.90
1297;DHT22;641;48.492;9.184;2022-09-09T02:36:43;16.70;99.90
1297;DHT22;641;48.492;9.184;2022-09-09T02:39:11;17.10;99.90
1297;DHT22;641;48.492;9.184;2022-09-09T02:41:39;17.20;99.90
1297;DHT22;641;48.492;9.184;2022-09-09T02:44:12;16.90;99.90
1297;DHT22;641;48.492;9.184;2022-09-09T02:46:59;16.90;99.90
1297;DHT22;641;48.492;9.184;2022-09-09T02:49:34;17.00;99.90
1297;DHT22;641;48.492;9.184;2022-09-09T02:52:07;17.00;99.90
1297;DHT22;641;48.492;9.184;2022-09-09T02:54:35;17.50;99.90
1297;DHT22;641;48.492;9.184;2022-09-09T02:57:11;17.40;99.90
1297;DHT22;641;48.492;9.184;2022-09-09T02:59:37;17.10;99.90
1297;DHT22;641;48.492;9.184;2022-09-09T03:02:03;17.40;99.90
1297;DHT22;641;48.492;9.184;2022-09-09T03:04:28;17.00;99.90
1297;DHT22;641;48.492;9.184;2022-09-09T03:06:55;17.00;99.90
1297;DHT22;641;48.492;9.184;2022-09-09T03:09:21;17.50;99.90
1297;DHT22;641;48.492;9.184;2022-09-09T03:11:46;17.20;99.90
1297;DHT22;641;48.492;9.184;2022-09-09T03:14:12;17.20;99.90
1297;DHT22;641;48.492;9.184;2022-09-09T03:16:38;17.10;99.90
1297;DHT22;641;48.492;9.184;2022-09-09T03:19:03;17.10;99.90
1297;DHT22;641;48.492;9.184;2022-09-09T03:21:29;17.30;99.90
1297;DHT22;641;48.492;9.184;2022-09-09T03:23:56;17.30;99.90
1297;DHT22;641;48.492;9.184;2022-09-09T03:26:22;17.40;99.90
1297;DHT22;641;48.492;9.184;2022-09-09T03:28:48;17.50;99.90
1297;DHT22;641;48.492;9.184;2022-09-09T03:31:15;18.60;99.90
1297;DHT22;641;48.492;9.184;2022-09-09T03:33:40;17.70;99.90
1297;DHT22;641;48.492;9.184;2022-09-09T03:36:09;17.90;99.90
1297;DHT22;641;48.492;9.184;2022-09-09T03:38:35;17.80;99.90
1297;DHT22;641;48.492;9.184;2022-09-09T03:41:01;17.70;99.90
1297;DHT22;641;48.492;9.184;2022-09-09T03:43:28;17.80;99.90
1297;DHT22;641;48.492;9.184;2022-09-09T03:45:55;17.30;99.90
1297;DHT22;641;48.492;9.184;2022-09-09T03:48:24;17.70;99.90
1297;DHT22;641;48.492;9.184;2022-09-09T03:50:52;17.60;99.90
1297;DHT22;641;48.492;9.184;2022-09-09T03:53:20;17.30;99.90
1297;DHT22;641;48.492;9.184;2022-09-09T03:55:49;17.50;99.90
1297;DHT22;641;48.492;9.184;2022-09-09T03:58:16;18.00;99.90
1297;DHT22;641;48.492;9.184;2022-09-09T04:00:52;17.50;99.90
1297;DHT22;641;48.492;9.184;2022-09-09T04:03:18;17.80;99.90
1297;DHT22;641;48.492;9.184;2022-09-09T04:05:44;17.70;99.90
1297;DHT22;641;48.492;9.184;2022-09-09T04:08:09;17.50;99.90
1297;DHT22;641;48.492;9.184;2022-09-09T04:10:35;17.60;99.90
1297;DHT22;641;48.492;9.184;2022-09-09T04:13:04;17.50;99.90
1297;DHT22;641;48.492;9.184;2022-09-09T04:15:30;17.90;99.90
1297;DHT22;641;48.492;9.184;2022-09-09T04:17:56;17.40;99.90
1297;DHT22;641;48.492;9.184;2022-09-09T04:20:22;17.80;99.90
1297;DHT22;641;48.492;9.184;2022-09-09T04:22:48;17.80;99.90
1297;DHT22;641;48.492;9.184;2022-09-09T04:25:13;17.40;99.90
1297;DHT22;641;48.492;9.184;2022-09-09T04:27:40;17.30;99.90
1297;DHT22;641;48.492;9.184;2022-09-09T04:30:06;17.60;99.90
1297;DHT22;641;48.492;9.184;2022-09-09T04:32:36;17.40;99.90
1297;DHT22;641;48.492;9.184;2022-09-09T04:35:02;17.90;99.90
1297;DHT22;641;48.492;9.184;2022-09-09T04:37:28;17.50;99.90
1297;DHT22;641;48.492;9.184;2022-09-09T04:39:54;17.70;99.90
1297;DHT22;641;48.492;9.184;2022-09-09T04:42:19;17.40;99.90
1297;DHT22;641;48.492;9.184;2022-09-09T04:44:45;17.50;99.90
1297;DHT22;641;48.492;9.184;2022-09-09T04:47:11;17.90;99.90
1297;DHT22;641;48.492;9.184;2022-09-09T04:49:37;17.80;99.90
1297;DHT22;641;48.492;9.184;2022-09-09T04:52:03;17.60;99.90
1297;DHT22;641;48.492;9.184;2022-09-09T04:54:29;17.50;99.90
1297;DHT22;641;48.492;9.184;2022-09-09T04:56:55;17.60;99.90
1297;DHT22;641;48.492;9.184;2022-09-09T04:59:21;17.70;99.90
1297;DHT22;641;48.492;9.184;2022-09-09T05:01:47;18.10;99.90
1297;DHT22;641;48.492;9.184;2022-09-09T05:04:13;18.00;99.90
1297;DHT22;641;48.492;9.184;2022-09-09T05:06:40;17.70;99.90
1297;DHT22;641;48.492;9.184;2022-09-09T05:09:06;17.80;99.90
1297;DHT22;641;48.492;9.184;2022-09-09T05:11:33;18.10;99.90
1297;DHT22;641;48.492;9.184;2022-09-09T05:14:01;18.00;99.90
1297;DHT22;641;48.492;9.184;2022-09-09T05:16:27;17.60;99.90
1297;DHT22;641;48.492;9.184;2022-09-09T05:18:52;18.10;99.90
1297;DHT22;641;48.492;9.184;2022-09-09T05:21:20;17.90;99.90
1297;DHT22;641;48.492;9.184;2022-09-09T05:23:46;17.70;99.90
1297;DHT22;641;48.492;9.184;2022-09-09T05:26:15;17.80;99.90
1297;DHT22;641;48.492;9.184;2022-09-09T05:28:41;17.90;99.90
1297;DHT22;641;48.492;9.184;2022-09-09T05:31:08;17.60;99.90
1297;DHT22;641;48.492;9.184;2022-09-09T05:33:35;17.90;99.90
1297;DHT22;641;48.492;9.184;2022-09-09T05:36:15;17.60;99.90
1297;DHT22;641;48.492;9.184;2022-09-09T05:38:42;18.00;99.90
1297;DHT22;641;48.492;9.184;2022-09-09T05:41:08;17.70;99.90
1297;DHT22;641;48.492;9.184;2022-09-09T05:43:35;17.60;99.90
1297;DHT22;641;48.492;9.184;2022-09-09T05:48:34;17.70;99.90
1297;DHT22;641;48.492;9.184;2022-09-09T05:51:00;17.70;99.90
1297;DHT22;641;48.492;9.184;2022-09-09T05:53:27;17.80;99.90
1297;DHT22;641;48.492;9.184;2022-09-09T05:56:10;17.90;99.90
1297;DHT22;641;48.492;9.184;2022-09-09T05:58:36;18.00;99.90
1297;DHT22;641;48.492;9.184;2022-09-09T06:01:12;18.00;99.90
1297;DHT22;641;48.492;9.184;2022-09-09T06:03:42;18.00;99.90
1297;DHT22;641;48.492;9.184;2022-09-09T06:06:13;18.20;99.90
1297;DHT22;641;48.492;9.184;2022-09-09T06:08:40;18.30;99.90
1297;DHT22;641;48.492;9.184;2022-09-09T06:11:13;18.70;99.90
1297;DHT22;641;48.492;9.184;2022-09-09T06:13:39;18.40;99.90
1297;DHT22;641;48.492;9.184;2022-09-09T06:16:10;18.40;99.90
1297;DHT22;641;48.492;9.184;2022-09-09T06:18:41;18.90;99.90
1297;DHT22;641;48.492;9.184;2022-09-09T06:21:11;18.80;99.90
1297;DHT22;641;48.492;9.184;2022-09-09T06:23:39;18.50;99.90
1297;DHT22;641;48.492;9.184;2022-09-09T06:26:26;18.50;99.90
1297;DHT22;641;48.492;9.184;2022-09-09T06:28:53;18.50;99.90
1297;DHT22;641;48.492;9.184;2022-09-09T06:31:21;18.60;99.90
1297;DHT22;641;48.492;9.184;2022-09-09T06:33:49;18.70;99.90
1297;DHT22;641;48.492;9.184;2022-09-09T06:36:20;18.80;99.90
1297;DHT22;641;48.492;9.184;2022-09-09T06:38:46;18.80;99.90
1297;DHT22;641;48.492;9.184;2022-09-09T06:41:15;18.80;99.90
1297;DHT22;641;48.492;9.184;2022-09-09T06:43:41;19.10;99.90
1297;DHT22;641;48.492;9.184;2022-09-09T06:46:11;19.00;99.90
1297;DHT22;641;48.492;9.184;2022-09-09T06:48:38;19.20;99.90
1297;DHT22;641;48.492;9.184;2022-09-09T06:51:14;18.80;99.90
1297;DHT22;641;48.492;9.184;2022-09-09T06:53:41;19.10;99.90
1297;DHT22;641;48.492;9.184;2022-09-09T06:58:43;18.80;99.90
1297;DHT22;641;48.492;9.184;2022-09-09T07:01:11;19.30;99.90
1297;DHT22;641;48.492;9.184;2022-09-09T07:03:38;18.90;99.90
1297;DHT22;641;48.492;9.184;2022-09-09T07:06:05;18.90;99.90
1297;DHT22;641;48.492;9.184;2022-09-09T07:08:31;18.90;99.90
1297;DHT22;641;48.492;9.184;2022-09-09T07:11:04;19.20;99.90
1297;DHT22;641;48.492;9.184;2022-09-09T07:13:33;19.20;99.90
1297;DHT22;641;48.492;9.184;2022-09-09T07:16:11;19.50;99.90
1297;DHT22;641;48.492;9.184;2022-09-09T07:18:37;19.50;99.90
1297;DHT22;641;48.492;9.184;2022-09-09T07:21:03;19.70;99.90
1297;DHT22;641;48.492;9.184;2022-09-09T07:23:29;19.70;99.90
1297;DHT22;641;48.492;9.184;2022-09-09T07:25:56;19.90;99.90
1297;DHT22;641;48.492;9.184;2022-09-09T07:28:22;20.00;99.90
1297;DHT22;641;48.492;9.184;2022-09-09T07:30:58;20.30;99.90
1297;DHT22;641;48.492;9.184;2022-09-09T07:33:25;20.20;99.90
1297;DHT22;641;48.492;9.184;2022-09-09T07:35:52;20.20;99.90
1297;DHT22;641;48.492;9.184;2022-09-09T07:38:19;20.30;99.90
1297;DHT22;641;48.492;9.184;2022-09-09T07:40:45;20.60;99.90
1297;DHT22;641;48.492;9.184;2022-09-09T07:43:11;20.20;99.90
1297;DHT22;641;48.492;9.184;2022-09-09T07:45:37;20.50;99.90
1297;DHT22;641;48.492;9.184;2022-09-09T07:48:03;20.50;99.90
1297;DHT22;641;48.492;9.184;2022-09-09T07:50:29;20.20;99.90
1297;DHT22;641;48.492;9.184;2022-09-09T07:52:55;20.40;99.90
1297;DHT22;641;48.492;9.184;2022-09-09T07:55:22;20.60;99.90
1297;DHT22;641;48.492;9.184;2022-09-09T07:57:51;20.80;99.90
1297;DHT22;641;48.492;9.184;2022-09-09T08:00:17;20.80;99.90
1297;DHT22;641;48.492;9.184;2022-09-09T08:02:44;20.60;99.90
1297;DHT22;641;48.492;9.184;2022-09-09T08:05:09;20.90;99.90
1297;DHT22;641;48.492;9.184;2022-09-09T08:07:35;20.90;99.90
1297;DHT22;641;48.492;9.184;2022-09-09T08:10:01;20.80;99.90
1297;DHT22;641;48.492;9.184;2022-09-09T08:12:27;21.10;99.90
1297;DHT22;641;48.492;9.184;2022-09-09T08:14:52;21.20;99.90
1297;DHT22;641;48.492;9.184;2022-09-09T08:17:19;21.40;99.90
1297;DHT22;641;48.492;9.184;2022-09-09T08:19:45;21.10;99.90
1297;DHT22;641;48.492;9.184;2022-09-09T08:22:10;21.20;99.90
1297;DHT22;641;48.492;9.184;2022-09-09T08:24:36;21.20;99.90
1297;DHT22;641;48.492;9.184;2022-09-09T08:27:02;21.50;99.90
1297;DHT22;641;48.492;9.184;2022-09-09T08:29:27;21.10;99.90
1297;DHT22;641;48.492;9.184;2022-09-09T08:31:56;21.00;99.90
1297;DHT22;641;48.492;9.184;2022-09-09T08:34:23;21.10;99.90
1297;DHT22;641;48.492;9.184;2022-09-09T08:36:50;21.40;99.90
1297;DHT22;641;48.492;9.184;2022-09-09T08:39:19;21.00;99.90
1297;DHT22;641;48.492;9.184;2022-09-09T08:50:16;21.20;99.90
1297;DHT22;641;48.492;9.184;2022-09-09T08:53:02;21.20;99.90
1297;DHT22;641;48.492;9.184;2022-09-09T08:58:15;21.70;99.90
1297;DHT22;641;48.492;9.184;2022-09-09T09:06:13;21.80;99.90
1297;DHT22;641;48.492;9.184;2022-09-09T09:08:56;21.50;99.90
1297;DHT22;641;48.492;9.184;2022-09-09T09:11:25;21.60;99.90
1297;DHT22;641;48.492;9.184;2022-09-09T09:13:55;21.50;99.90
1297;DHT22;641;48.492;9.184;2022-09-09T09:16:36;21.60;99.90
1297;DHT22;641;48.492;9.184;2022-09-09T09:19:04;21.80;99.90
1297;DHT22;641;48.492;9.184;2022-09-09T09:21:41;21.90;99.90
1297;DHT22;641;48.492;9.184;2022-09-09T09:26:45;21.70;99.30
1297;DHT22;641;48.492;9.184;2022-09-09T09:29:13;21.80;99.80
1297;DHT22;641;48.492;9.184;2022-09-09T09:31:46;21.90;99.20
1297;DHT22;641;48.492;9.184;2022-09-09T09:34:13;21.90;99.90
1297;DHT22;641;48.492;9.184;2022-09-09T09:36:42;22.30;99.40
1297;DHT22;641;48.492;9.184;2022-09-09T09:39:10;22.50;99.30
1297;DHT22;641;48.492;9.184;2022-09-09T09:41:38;22.20;99.00
1297;DHT22;641;48.492;9.184;2022-09-09T09:44:06;22.20;98.50
1297;DHT22;641;48.492;9.184;2022-09-09T09:46:45;22.20;98.30
1297;DHT22;641;48.492;9.184;2022-09-09T09:49:10;22.50;98.10
1297;DHT22;641;48.492;9.184;2022-09-09T09:51:36;22.20;97.50
1297;DHT22;641;48.492;9.184;2022-09-09T09:56:44;22.30;97.20
1297;DHT22;641;48.492;9.184;2022-09-09T10:01:45;22.80;97.80
1297;DHT22;641;48.492;9.184;2022-09-09T10:04:17;22.60;97.80
1297;DHT22;641;48.492;9.184;2022-09-09T10:06:44;22.70;96.90
1297;DHT22;641;48.492;9.184;2022-09-09T10:12:03;22.80;96.70
1297;DHT22;641;48.492;9.184;2022-09-09T10:18:12;23.00;96.90
1297;DHT22;641;48.492;9.184;2022-09-09T10:23:28;23.20;95.10
1297;DHT22;641;48.492;9.184;2022-09-09T10:27:01;23.20;96.20
1297;DHT22;641;48.492;9.184;2022-09-09T10:29:32;23.10;95.90
1297;DHT22;641;48.492;9.184;2022-09-09T10:32:13;22.90;96.40
1297;DHT22;641;48.492;9.184;2022-09-09T10:34:57;22.90;96.40
1297;DHT22;641;48.492;9.184;2022-09-09T10:37:49;23.00;96.70
1297;DHT22;641;48.492;9.184;2022-09-09T10:48:43;23.10;93.10
1297;DHT22;641;48.492;9.184;2022-09-09T10:54:31;23.10;93.60
1297;DHT22;641;48.492;9.184;2022-09-09T10:57:13;23.10;93.90
1297;DHT22;641;48.492;9.184;2022-09-09T10:59:47;23.20;94.50
1297;DHT22;641;48.492;9.184;2022-09-09T11:02:29;23.10;93.40
1297;DHT22;641;48.492;9.184;2022-09-09T11:05:00;23.10;93.10
1297;DHT22;641;48.492;9.184;2022-09-09T11:07:36;23.10;93.10
1297;DHT22;641;48.492;9.184;2022-09-09T11:10:11;23.20;93.60
1297;DHT22;641;48.492;9.184;2022-09-09T11:12:39;23.20;93.70
1297;DHT22;641;48.492;9.184;2022-09-09T11:15:31;23.20;93.20
1297;DHT22;641;48.492;9.184;2022-09-09T11:18:02;23.60;93.70
1297;DHT22;641;48.492;9.184;2022-09-09T11:20:29;23.50;93.60
1297;DHT22;641;48.492;9.184;2022-09-09T11:23:09;23.50;93.30
1297;DHT22;641;48.492;9.184;2022-09-09T11:25:40;23.60;92.70
1297;DHT22;641;48.492;9.184;2022-09-09T11:40:32;22.00;94.60
1297;DHT22;641;48.492;9.184;2022-09-09T11:43:28;21.20;95.50
1297;DHT22;641;48.492;9.184;2022-09-09T11:45:59;21.20;95.90
1297;DHT22;641;48.492;9.184;2022-09-09T11:53:59;21.60;95.90
1297;DHT22;641;48.492;9.184;2022-09-09T11:56:30;21.60;95.40
1297;DHT22;641;48.492;9.184;2022-09-09T11:59:01;21.80;95.10
1297;DHT22;641;48.492;9.184;2022-09-09T12:01:33;21.80;94.10
1297;DHT22;641;48.492;9.184;2022-09-09T12:06:46;22.00;93.40
1297;DHT22;641;48.492;9.184;2022-09-09T12:11:53;22.40;92.80
1297;DHT22;641;48.492;9.184;2022-09-09T12:19:41;22.70;92.40
1297;DHT22;641;48.492;9.184;2022-09-09T12:22:31;22.90;91.80
1297;DHT22;641;48.492;9.184;2022-09-09T12:25:30;22.70;91.60
1297;DHT22;641;48.492;9.184;2022-09-09T12:33:24;22.70;92.00
1297;DHT22;641;48.492;9.184;2022-09-09T12:35:55;23.10;91.90
1297;DHT22;641;48.492;9.184;2022-09-09T12:38:32;22.80;92.60
1297;DHT22;641;48.492;9.184;2022-09-09T12:40:59;22.60;92.80
1297;DHT22;641;48.492;9.184;2022-09-09T12:43:26;22.50;93.20
1297;DHT22;641;48.492;9.184;2022-09-09T12:45:59;22.70;93.90
1297;DHT22;641;48.492;9.184;2022-09-09T12:48:35;22.30;93.20
1297;DHT22;641;48.492;9.184;2022-09-09T12:51:02;22.30;93.70
1297;DHT22;641;48.492;9.184;2022-09-09T12:53:36;22.30;93.70
1297;DHT22;641;48.492;9.184;2022-09-09T12:56:09;22.50;94.10
1297;DHT22;641;48.492;9.184;2022-09-09T12:58:46;22.30;93.90
1297;DHT22;641;48.492;9.184;2022-09-09T13:01:28;22.60;94.30
1297;DHT22;641;48.492;9.184;2022-09-09T13:03:55;22.60;94.00
1297;DHT22;641;48.492;9.184;2022-09-09T13:06:29;23.20;93.50
1297;DHT22;641;48.492;9.184;2022-09-09T13:08:56;22.90;92.10
1297;DHT22;641;48.492;9.184;2022-09-09T13:11:41;22.90;90.90
1297;DHT22;641;48.492;9.184;2022-09-09T13:14:18;22.90;91.20
1297;DHT22;641;48.492;9.184;2022-09-09T13:16:56;23.10;91.60
1297;DHT22;641;48.492;9.184;2022-09-09T13:19:23;22.80;91.90
1297;DHT22;641;48.492;9.184;2022-09-09T13:21:53;22.80;91.90
1297;DHT22;641;48.492;9.184;2022-09-09T13:27:00;22.90;91.70
1297;DHT22;641;48.492;9.184;2022-09-09T13:29:29;23.10;91.60
1297;DHT22;641;48.492;9.184;2022-09-09T13:32:12;23.00;91.70
1297;DHT22;641;48.492;9.184;2022-09-09T13:34:57;23.00;91.30
1297;DHT22;641;48.492;9.184;2022-09-09T13:37:37;23.00;91.60
1297;DHT22;641;48.492;9.184;2022-09-09T13:40:05;23.00;91.60
1297;DHT22;641;48.492;9.184;2022-09-09T13:42:39;23.10;91.20
1297;DHT22;641;48.492;9.184;2022-09-09T13:45:19;23.30;92.30
1297;DHT22;641;48.492;9.184;2022-09-09T13:47:46;23.40;91.00
1297;DHT22;641;48.492;9.184;2022-09-09T13:50:23;23.10;91.20
1297;DHT22;641;48.492;9.184;2022-09-09T13:52:50;23.10;91.70
1297;DHT22;641;48.492;9.184;2022-09-09T13:55:19;23.10;92.10
1297;DHT22;641;48.492;9.184;2022-09-09T13:57:58;23.10;92.00
1297;DHT22;641;48.492;9.184;2022-09-09T14:00:24;23.20;92.50
1297;DHT22;641;48.492;9.184;2022-09-09T14:02:50;23.40;92.50
1297;DHT22;641;48.492;9.184;2022-09-09T14:05:17;23.50;92.00
1297;DHT22;641;48.492;9.184;2022-09-09T14:07:44;23.50;91.00
1297;DHT22;641;48.492;9.184;2022-09-09T14:10:11;23.30;91.30
1297;DHT22;641;48.492;9.184;2022-09-09T14:12:37;23.30;91.00
1297;DHT22;641;48.492;9.184;2022-09-09T14:15:04;23.30;90.90
1297;DHT22;641;48.492;9.184;2022-09-09T14:17:31;23.40;91.00
1297;DHT22;641;48.492;9.184;2022-09-09T14:19:57;23.50;90.80
1297;DHT22;641;48.492;9.184;2022-09-09T14:22:23;23.60;90.50
1297;DHT22;641;48.492;9.184;2022-09-09T14:24:49;23.70;90.90
1297;DHT22;641;48.492;9.184;2022-09-09T14:27:16;23.70;90.20
1297;DHT22;641;48.492;9.184;2022-09-09T14:29:43;23.70;89.00
1297;DHT22;641;48.492;9.184;2022-09-09T14:32:10;23.60;89.30
1297;DHT22;641;48.492;9.184;2022-09-09T14:34:35;23.50;90.40
1297;DHT22;641;48.492;9.184;2022-09-09T14:37:01;23.40;90.60
1297;DHT22;641;48.492;9.184;2022-09-09T14:39:27;23.30;90.60
1297;DHT22;641;48.492;9.184;2022-09-09T14:41:53;23.30;91.20
1297;DHT22;641;48.492;9.184;2022-09-09T14:44:18;23.30;90.80
1297;DHT22;641;48.492;9.184;2022-09-09T14:46:44;23.20;90.70
1297;DHT22;641;48.492;9.184;2022-09-09T14:49:10;23.30;90.80
1297;DHT22;641;48.492;9.184;2022-09-09T14:51:36;23.30;90.80
1297;DHT22;641;48.492;9.184;2022-09-09T14:54:02;23.30;90.90
1297;DHT22;641;48.492;9.184;2022-09-09T14:56:30;23.50;91.20
1297;DHT22;641;48.492;9.184;2022-09-09T14:58:58;23.60;90.00
1297;DHT22;641;48.492;9.184;2022-09-09T15:01:24;23.60;87.60
1297;DHT22;641;48.492;9.184;2022-09-09T15:04:00;23.60;88.50
1297;DHT22;641;48.492;9.184;2022-09-09T15:06:28;23.50;88.60
1297;DHT22;641;48.492;9.184;2022-09-09T15:08:55;23.40;88.80
1297;DHT22;641;48.492;9.184;2022-09-09T15:11:23;23.30;89.00
1297;DHT22;641;48.492;9.184;2022-09-09T15:13:51;23.20;90.00
1297;DHT22;641;48.492;9.184;2022-09-09T15:16:21;23.20;88.90
1297;DHT22;641;48.492;9.184;2022-09-09T15:18:51;23.20;90.00
1297;DHT22;641;48.492;9.184;2022-09-09T15:21:19;23.10;91.80
1297;DHT22;641;48.492;9.184;2022-09-09T15:23:47;23.10;92.60
1297;DHT22;641;48.492;9.184;2022-09-09T15:26:13;23.10;94.00
1297;DHT22;641;48.492;9.184;2022-09-09T15:28:42;22.80;91.90
1297;DHT22;641;48.492;9.184;2022-09-09T15:31:26;22.70;93.30
1297;DHT22;641;48.492;9.184;2022-09-09T15:34:05;22.50;91.60
1297;DHT22;641;48.492;9.184;2022-09-09T15:39:03;22.20;91.20
1297;DHT22;641;48.492;9.184;2022-09-09T15:41:30;22.20;91.00
1297;DHT22;641;48.492;9.184;2022-09-09T15:43:57;22.30;91.60
1297;DHT22;641;48.492;9.184;2022-09-09T15:46:36;22.40;92.00
1297;DHT22;641;48.492;9.184;2022-09-09T15:49:14;22.50;90.80
1297;DHT22;641;48.492;9.184;2022-09-09T15:51:42;22.60;90.80
1297;DHT22;641;48.492;9.184;2022-09-09T15:54:14;22.60;90.80
1297;DHT22;641;48.492;9.184;2022-09-09T15:56:42;22.40;88.20
1297;DHT22;641;48.492;9.184;2022-09-09T15:59:08;22.60;89.30
1297;DHT22;641;48.492;9.184;2022-09-09T16:01:35;22.60;89.00
1297;DHT22;641;48.492;9.184;2022-09-09T16:04:01;22.70;88.40
1297;DHT22;641;48.492;9.184;2022-09-09T16:06:28;22.90;88.50
1297;DHT22;641;48.492;9.184;2022-09-09T16:08:55;23.00;88.40
1297;DHT22;641;48.492;9.184;2022-09-09T16:11:28;23.00;88.40
1297;DHT22;641;48.492;9.184;2022-09-09T16:13:54;22.80;88.00
1297;DHT22;641;48.492;9.184;2022-09-09T16:16:23;22.90;88.40
1297;DHT22;641;48.492;9.184;2022-09-09T16:18:52;22.80;87.60
1297;DHT22;641;48.492;9.184;2022-09-09T16:21:24;22.70;87.50
1297;DHT22;641;48.492;9.184;2022-09-09T16:23:51;22.60;87.20
1297;DHT22;641;48.492;9.184;2022-09-09T16:26:19;22.50;88.10
1297;DHT22;641;48.492;9.184;2022-09-09T16:28:45;22.40;89.00
1297;DHT22;641;48.492;9.184;2022-09-09T16:31:18;22.40;90.10
1297;DHT22;641;48.492;9.184;2022-09-09T16:33:44;22.40;90.10
1297;DHT22;641;48.492;9.184;2022-09-09T16:36:23;22.40;90.50
1297;DHT22;641;48.492;9.184;2022-09-09T16:38:54;22.40;90.50
1297;DHT22;641;48.492;9.184;2022-09-09T16:41:23;22.30;90.10
1297;DHT22;641;48.492;9.184;2022-09-09T16:43:53;22.30;90.60
1297;DHT22;641;48.492;9.184;2022-09-09T16:46:20;22.20;90.60
1297;DHT22;641;48.492;9.184;2022-09-09T16:48:48;22.00;90.70
1297;DHT22;641;48.492;9.184;2022-09-09T16:51:29;22.00;91.40
1297;DHT22;641;48.492;9.184;2022-09-09T16:53:59;22.10;91.60
1297;DHT22;641;48.492;9.184;2022-09-09T16:56:27;22.10;91.80
1297;DHT22;641;48.492;9.184;2022-09-09T16:58:54;22.00;91.80
1297;DHT22;641;48.492;9.184;2022-09-09T17:01:21;21.90;91.80
1297;DHT22;641;48.492;9.184;2022-09-09T17:03:55;21.80;91.50
1297;DHT22;641;48.492;9.184;2022-09-09T17:06:21;21.70;92.10
1297;DHT22;641;48.492;9.184;2022-09-09T17:08:53;21.70;91.80
1297;DHT22;641;48.492;9.184;2022-09-09T17:11:19;21.50;91.80
1297;DHT22;641;48.492;9.184;2022-09-09T17:13:45;21.40;92.00
1297;DHT22;641;48.492;9.184;2022-09-09T17:16:13;21.50;92.20
1297;DHT22;641;48.492;9.184;2022-09-09T17:18:39;21.20;92.40
1297;DHT22;641;48.492;9.184;2022-09-09T17:21:17;21.20;92.60
1297;DHT22;641;48.492;9.184;2022-09-09T17:23:44;21.20;92.50
1297;DHT22;641;48.492;9.184;2022-09-09T17:26:12;21.10;92.80
1297;DHT22;641;48.492;9.184;2022-09-09T17:28:40;21.00;93.00
1297;DHT22;641;48.492;9.184;2022-09-09T17:31:08;21.10;92.90
1297;DHT22;641;48.492;9.184;2022-09-09T17:33:39;21.10;93.00
1297;DHT22;641;48.492;9.184;2022-09-09T17:36:16;21.10;93.30
1297;DHT22;641;48.492;9.184;2022-09-09T17:38:42;21.10;93.50
1297;DHT22;641;48.492;9.184;2022-09-09T17:41:11;21.10;93.70
1297;DHT22;641;48.492;9.184;2022-09-09T17:43:37;21.10;93.60
1297;DHT22;641;48.492;9.184;2022-09-09T17:46:11;21.10;93.70
1297;DHT22;641;48.492;9.184;2022-09-09T17:48:38;21.10;94.20
1297;DHT22;641;48.492;9.184;2022-09-09T17:51:06;21.10;93.80
1297;DHT22;641;48.492;9.184;2022-09-09T17:53:40;21.00;94.10
1297;DHT22;641;48.492;9.184;2022-09-09T17:56:07;20.90;94.30
1297;DHT22;641;48.492;9.184;2022-09-09T17:58:33;20.90;94.40
1297;DHT22;641;48.492;9.184;2022-09-09T18:01:05;20.70;94.10
1297;DHT22;641;48.492;9.184;2022-09-09T18:03:33;20.50;94.00
1297;DHT22;641;48.492;9.184;2022-09-09T18:06:01;20.40;94.20
1297;DHT22;641;48.492;9.184;2022-09-09T18:08:27;20.40;94.30
1297;DHT22;641;48.492;9.184;2022-09-09T18:10:54;20.40;94.30
1297;DHT22;641;48.492;9.184;2022-09-09T18:13:21;20.40;94.30
1297;DHT22;641;48.492;9.184;2022-09-09T18:15:47;20.40;94.40
1297;DHT22;641;48.492;9.184;2022-09-09T18:18:12;20.60;95.00
1297;DHT22;641;48.492;9.184;2022-09-09T18:20:39;20.30;95.20
1297;DHT22;641;48.492;9.184;2022-09-09T18:23:05;20.40;95.10
1297;DHT22;641;48.492;9.184;2022-09-09T18:25:31;20.20;94.90
1297;DHT22;641;48.492;9.184;2022-09-09T18:27:56;20.20;95.10
1297;DHT22;641;48.492;9.184;2022-09-09T18:30:23;20.20;94.70
1297;DHT22;641;48.492;9.184;2022-09-09T18:32:49;20.40;94.90
1297;DHT22;641;48.492;9.184;2022-09-09T18:35:15;20.30;95.20
1297;DHT22;641;48.492;9.184;2022-09-09T18:37:41;19.80;95.00
1297;DHT22;641;48.492;9.184;2022-09-09T18:40:06;19.70;95.20